sensor_id;sensor_type;location;lat;lon;timestamp;P1;durP1;ratioP1;P2;durP2;ratioP2
66012;SDS011;52783;50.502;8.190;2023-06-10T00:01:12;5.97;;;4.80;;
66012;SDS011;52783;50.502;8.190;2023-06-10T00:03:37;6.45;;;5.05;;
66012;SDS011;52783;50.502;8.190;2023-06-10T00:06:04;8.60;;;5.05;;
66012;SDS011;52783;50.502;8.190;2023-06-10T00:08:30;7.18;;;4.97;;
66012;SDS011;52783;50.502;8.190;2023-06-10T00:10:55;10.10;;;4.90;;
66012;SDS011;52783;50.502;8.190;2023-06-10T00:13:21;8.75;;;5.30;;
66012;SDS011;52783;50.502;8.190;2023-06-10T00:15:46;7.38;;;5.18;;
66012;SDS011;52783;50.502;8.190;2023-06-10T00:18:12;12.05;;;4.80;;
66012;SDS011;52783;50.502;8.190;2023-06-10T00:20:37;12.25;;;5.40;;
66012;SDS011;52783;50.502;8.190;2023-06-10T00:23:04;6.60;;;4.80;;
66012;SDS011;52783;50.502;8.190;2023-06-10T00:25:31;8.65;;;5.03;;
66012;SDS011;52783;50.502;8.190;2023-06-10T00:27:58;6.35;;;4.53;;
66012;SDS011;52783;50.502;8.190;2023-06-10T00:30:23;11.60;;;4.80;;
66012;SDS011;52783;50.502;8.190;2023-06-10T00:32:49;9.00;;;5.20;;
66012;SDS011;52783;50.502;8.190;2023-06-10T00:35:14;14.00;;;5.43;;
66012;SDS011;52783;50.502;8.190;2023-06-10T00:37:40;11.98;;;5.25;;
66012;SDS011;52783;50.502;8.190;2023-06-10T00:40:05;8.10;;;5.00;;
66012;SDS011;52783;50.502;8.190;2023-06-10T00:42:34;7.72;;;4.78;;
66012;SDS011;52783;50.502;8.190;2023-06-10T00:44:59;6.75;;;5.03;;
66012;SDS011;52783;50.502;8.190;2023-06-10T00:47:25;11.35;;;5.05;;
66012;SDS011;52783;50.502;8.190;2023-06-10T00:49:51;14.23;;;5.05;;
66012;SDS011;52783;50.502;8.190;2023-06-10T00:52:17;7.03;;;5.00;;
66012;SDS011;52783;50.502;8.190;2023-06-10T00:54:45;11.27;;;4.93;;
66012;SDS011;52783;50.502;8.190;2023-06-10T00:57:11;11.55;;;5.15;;
66012;SDS011;52783;50.502;8.190;2023-06-10T00:59:38;7.47;;;4.90;;
66012;SDS011;52783;50.502;8.190;2023-06-10T01:02:04;7.68;;;4.68;;
66012;SDS011;52783;50.502;8.190;2023-06-10T01:04:30;8.95;;;4.88;;
66012;SDS011;52783;50.502;8.190;2023-06-10T01:07:05;6.75;;;5.22;;
66012;SDS011;52783;50.502;8.190;2023-06-10T01:12:33;10.70;;;5.43;;
66012;SDS011;52783;50.502;8.190;2023-06-10T01:15:04;8.32;;;5.15;;
66012;SDS011;52783;50.502;8.190;2023-06-10T01:17:30;7.03;;;4.68;;
66012;SDS011;52783;50.502;8.190;2023-06-10T01:19:57;8.38;;;4.85;;
66012;SDS011;52783;50.502;8.190;2023-06-10T01:22:23;13.32;;;5.50;;
66012;SDS011;52783;50.502;8.190;2023-06-10T01:24:50;13.05;;;4.80;;
66012;SDS011;52783;50.502;8.190;2023-06-10T01:27:17;10.15;;;5.07;;
66012;SDS011;52783;50.502;8.190;2023-06-10T01:29:50;9.23;;;4.90;;
66012;SDS011;52783;50.502;8.190;2023-06-10T01:32:26;8.18;;;4.82;;
66012;SDS011;52783;50.502;8.190;2023-06-10T01:34:57;6.05;;;4.65;;
66012;SDS011;52783;50.502;8.190;2023-06-10T01:37:26;8.18;;;4.60;;
66012;SDS011;52783;50.502;8.190;2023-06-10T01:39:52;7.18;;;4.95;;
66012;SDS011;52783;50.502;8.190;2023-06-10T01:42:21;8.27;;;4.65;;
66012;SDS011;52783;50.502;8.190;2023-06-10T01:44:47;8.55;;;4.88;;
66012;SDS011;52783;50.502;8.190;2023-06-10T01:47:12;12.13;;;4.90;;
66012;SDS011;52783;50.502;8.190;2023-06-10T01:49:38;6.47;;;4.72;;
66012;SDS011;52783;50.502;8.190;2023-06-10T01:52:03;8.90;;;5.30;;
66012;SDS011;52783;50.502;8.190;2023-06-10T01:54:29;9.35;;;5.07;;
66012;SDS011;52783;50.502;8.190;2023-06-10T01:56:55;7.47;;;5.10;;
66012;SDS011;52783;50.502;8.190;2023-06-10T01:59:20;9.65;;;4.80;;
66012;SDS011;52783;50.502;8.190;2023-06-10T02:01:46;9.80;;;5.00;;
66012;SDS011;52783;50.502;8.190;2023-06-10T02:04:11;7.38;;;4.88;;
66012;SDS011;52783;50.502;8.190;2023-06-10T02:06:37;10.48;;;4.97;;
66012;SDS011;52783;50.502;8.190;2023-06-10T02:09:02;8.93;;;4.78;;
66012;SDS011;52783;50.502;8.190;2023-06-10T02:11:28;8.00;;;5.30;;
66012;SDS011;52783;50.502;8.190;2023-06-10T02:13:54;10.43;;;5.30;;
66012;SDS011;52783;50.502;8.190;2023-06-10T02:16:19;7.80;;;5.13;;
66012;SDS011;52783;50.502;8.190;2023-06-10T02:18:46;8.55;;;4.50;;
66012;SDS011;52783;50.502;8.190;2023-06-10T02:21:12;8.52;;;5.20;;
66012;SDS011;52783;50.502;8.190;2023-06-10T02:23:37;8.95;;;4.93;;
66012;SDS011;52783;50.502;8.190;2023-06-10T02:26:03;6.95;;;4.90;;
66012;SDS011;52783;50.502;8.190;2023-06-10T02:28:29;7.88;;;4.93;;
66012;SDS011;52783;50.502;8.190;2023-06-10T02:30:54;7.95;;;4.90;;
66012;SDS011;52783;50.502;8.190;2023-06-10T02:33:21;9.75;;;4.82;;
66012;SDS011;52783;50.502;8.190;2023-06-10T02:35:48;7.40;;;5.05;;
66012;SDS011;52783;50.502;8.190;2023-06-10T02:38:13;7.05;;;5.15;;
66012;SDS011;52783;50.502;8.190;2023-06-10T02:40:39;10.13;;;4.80;;
66012;SDS011;52783;50.502;8.190;2023-06-10T02:43:04;7.53;;;5.05;;
66012;SDS011;52783;50.502;8.190;2023-06-10T02:45:30;6.97;;;4.70;;
66012;SDS011;52783;50.502;8.190;2023-06-10T02:47:55;8.55;;;4.82;;
66012;SDS011;52783;50.502;8.190;2023-06-10T02:50:21;10.00;;;5.03;;
66012;SDS011;52783;50.502;8.190;2023-06-10T02:52:47;7.40;;;4.75;;
66012;SDS011;52783;50.502;8.190;2023-06-10T02:55:13;6.95;;;4.65;;
66012;SDS011;52783;50.502;8.190;2023-06-10T02:57:38;6.28;;;4.78;;
66012;SDS011;52783;50.502;8.190;2023-06-10T03:00:04;9.43;;;5.30;;
66012;SDS011;52783;50.502;8.190;2023-06-10T03:02:35;6.45;;;5.00;;
66012;SDS011;52783;50.502;8.190;2023-06-10T03:05:01;9.70;;;4.60;;
66012;SDS011;52783;50.502;8.190;2023-06-10T03:07:27;9.60;;;4.70;;
66012;SDS011;52783;50.502;8.190;2023-06-10T03:09:53;10.35;;;4.72;;
66012;SDS011;52783;50.502;8.190;2023-06-10T03:12:18;8.85;;;4.60;;
66012;SDS011;52783;50.502;8.190;2023-06-10T03:14:44;9.30;;;4.95;;
66012;SDS011;52783;50.502;8.190;2023-06-10T03:17:09;8.77;;;4.68;;
66012;SDS011;52783;50.502;8.190;2023-06-10T03:19:35;7.53;;;4.78;;
66012;SDS011;52783;50.502;8.190;2023-06-10T03:22:12;8.65;;;4.75;;
66012;SDS011;52783;50.502;8.190;2023-06-10T03:24:39;6.72;;;4.70;;
66012;SDS011;52783;50.502;8.190;2023-06-10T03:27:08;6.38;;;4.45;;
66012;SDS011;52783;50.502;8.190;2023-06-10T03:29:35;7.32;;;4.57;;
66012;SDS011;52783;50.502;8.190;2023-06-10T03:32:04;5.72;;;4.40;;
66012;SDS011;52783;50.502;8.190;2023-06-10T03:34:31;12.27;;;4.43;;
66012;SDS011;52783;50.502;8.190;2023-06-10T03:36:57;8.00;;;4.45;;
66012;SDS011;52783;50.502;8.190;2023-06-10T03:39:22;8.60;;;4.25;;
66012;SDS011;52783;50.502;8.190;2023-06-10T03:41:48;19.08;;;5.57;;
66012;SDS011;52783;50.502;8.190;2023-06-10T03:44:14;10.90;;;4.60;;
66012;SDS011;52783;50.502;8.190;2023-06-10T03:46:40;6.05;;;4.63;;
66012;SDS011;52783;50.502;8.190;2023-06-10T03:49:06;8.25;;;4.85;;
66012;SDS011;52783;50.502;8.190;2023-06-10T03:51:31;7.45;;;4.50;;
66012;SDS011;52783;50.502;8.190;2023-06-10T03:53:57;9.30;;;5.03;;
66012;SDS011;52783;50.502;8.190;2023-06-10T03:56:22;8.85;;;4.68;;
66012;SDS011;52783;50.502;8.190;2023-06-10T03:58:48;10.02;;;4.38;;
66012;SDS011;52783;50.502;8.190;2023-06-10T04:01:13;7.78;;;4.53;;
66012;SDS011;52783;50.502;8.190;2023-06-10T04:03:39;5.63;;;4.03;;
66012;SDS011;52783;50.502;8.190;2023-06-10T04:06:06;11.23;;;4.43;;
66012;SDS011;52783;50.502;8.190;2023-06-10T04:08:32;7.10;;;4.15;;
66012;SDS011;52783;50.502;8.190;2023-06-10T04:10:58;7.38;;;4.18;;
66012;SDS011;52783;50.502;8.190;2023-06-10T04:13:24;6.72;;;4.15;;
66012;SDS011;52783;50.502;8.190;2023-06-10T04:15:50;7.07;;;3.75;;
66012;SDS011;52783;50.502;8.190;2023-06-10T04:18:15;8.50;;;4.35;;
66012;SDS011;52783;50.502;8.190;2023-06-10T04:20:41;7.60;;;4.40;;
66012;SDS011;52783;50.502;8.190;2023-06-10T04:23:07;5.40;;;4.10;;
66012;SDS011;52783;50.502;8.190;2023-06-10T04:25:33;7.13;;;4.10;;
66012;SDS011;52783;50.502;8.190;2023-06-10T04:27:58;9.07;;;4.22;;
66012;SDS011;52783;50.502;8.190;2023-06-10T04:30:24;7.88;;;4.50;;
66012;SDS011;52783;50.502;8.190;2023-06-10T04:32:50;6.60;;;4.22;;
66012;SDS011;52783;50.502;8.190;2023-06-10T04:35:15;6.15;;;4.28;;
66012;SDS011;52783;50.502;8.190;2023-06-10T04:37:41;7.78;;;4.70;;
66012;SDS011;52783;50.502;8.190;2023-06-10T04:40:07;9.02;;;4.35;;
66012;SDS011;52783;50.502;8.190;2023-06-10T04:42:34;7.50;;;4.13;;
66012;SDS011;52783;50.502;8.190;2023-06-10T04:44:59;9.38;;;4.30;;
66012;SDS011;52783;50.502;8.190;2023-06-10T04:47:25;5.80;;;4.05;;
66012;SDS011;52783;50.502;8.190;2023-06-10T04:49:51;7.30;;;4.22;;
66012;SDS011;52783;50.502;8.190;2023-06-10T04:52:17;8.35;;;4.07;;
66012;SDS011;52783;50.502;8.190;2023-06-10T04:54:43;9.88;;;4.32;;
66012;SDS011;52783;50.502;8.190;2023-06-10T04:57:09;7.00;;;4.00;;
66012;SDS011;52783;50.502;8.190;2023-06-10T04:59:36;6.55;;;4.32;;
66012;SDS011;52783;50.502;8.190;2023-06-10T05:02:03;6.13;;;3.90;;
66012;SDS011;52783;50.502;8.190;2023-06-10T05:04:29;7.80;;;3.80;;
66012;SDS011;52783;50.502;8.190;2023-06-10T05:06:55;6.82;;;4.20;;
66012;SDS011;52783;50.502;8.190;2023-06-10T05:09:20;16.73;;;4.40;;
66012;SDS011;52783;50.502;8.190;2023-06-10T05:11:46;6.78;;;4.05;;
66012;SDS011;52783;50.502;8.190;2023-06-10T05:14:11;8.65;;;4.05;;
66012;SDS011;52783;50.502;8.190;2023-06-10T05:16:37;8.07;;;4.05;;
66012;SDS011;52783;50.502;8.190;2023-06-10T05:19:03;7.75;;;4.05;;
66012;SDS011;52783;50.502;8.190;2023-06-10T05:21:29;11.02;;;4.47;;
66012;SDS011;52783;50.502;8.190;2023-06-10T05:23:55;6.55;;;4.22;;
66012;SDS011;52783;50.502;8.190;2023-06-10T05:26:20;7.28;;;4.30;;
66012;SDS011;52783;50.502;8.190;2023-06-10T05:28:46;7.80;;;4.03;;
66012;SDS011;52783;50.502;8.190;2023-06-10T05:31:12;6.43;;;4.22;;
66012;SDS011;52783;50.502;8.190;2023-06-10T05:33:37;10.25;;;4.15;;
66012;SDS011;52783;50.502;8.190;2023-06-10T05:36:04;8.75;;;4.07;;
66012;SDS011;52783;50.502;8.190;2023-06-10T05:38:29;4.80;;;3.78;;
66012;SDS011;52783;50.502;8.190;2023-06-10T05:40:55;9.10;;;3.95;;
66012;SDS011;52783;50.502;8.190;2023-06-10T05:43:21;10.18;;;4.28;;
66012;SDS011;52783;50.502;8.190;2023-06-10T05:45:47;6.60;;;4.32;;
66012;SDS011;52783;50.502;8.190;2023-06-10T05:48:13;9.15;;;4.28;;
66012;SDS011;52783;50.502;8.190;2023-06-10T05:50:38;7.57;;;4.10;;
66012;SDS011;52783;50.502;8.190;2023-06-10T05:53:07;6.90;;;4.07;;
66012;SDS011;52783;50.502;8.190;2023-06-10T05:55:39;10.88;;;4.25;;
66012;SDS011;52783;50.502;8.190;2023-06-10T05:58:06;8.05;;;4.30;;
66012;SDS011;52783;50.502;8.190;2023-06-10T06:00:31;10.57;;;3.80;;
66012;SDS011;52783;50.502;8.190;2023-06-10T06:02:57;12.10;;;3.85;;
66012;SDS011;52783;50.502;8.190;2023-06-10T06:05:23;17.52;;;4.50;;
66012;SDS011;52783;50.502;8.190;2023-06-10T06:07:49;9.05;;;4.30;;
66012;SDS011;52783;50.502;8.190;2023-06-10T06:10:16;6.68;;;4.28;;
66012;SDS011;52783;50.502;8.190;2023-06-10T06:12:42;14.15;;;4.40;;
66012;SDS011;52783;50.502;8.190;2023-06-10T06:15:07;9.98;;;4.10;;
66012;SDS011;52783;50.502;8.190;2023-06-10T06:17:34;6.72;;;4.07;;
66012;SDS011;52783;50.502;8.190;2023-06-10T06:19:59;15.60;;;4.47;;
66012;SDS011;52783;50.502;8.190;2023-06-10T06:22:25;12.40;;;4.43;;
66012;SDS011;52783;50.502;8.190;2023-06-10T06:24:50;9.35;;;3.80;;
66012;SDS011;52783;50.502;8.190;2023-06-10T06:27:16;6.75;;;3.92;;
66012;SDS011;52783;50.502;8.190;2023-06-10T06:29:41;9.93;;;4.07;;
66012;SDS011;52783;50.502;8.190;2023-06-10T06:32:07;10.45;;;4.43;;
66012;SDS011;52783;50.502;8.190;2023-06-10T06:34:32;10.18;;;4.68;;
66012;SDS011;52783;50.502;8.190;2023-06-10T06:36:58;10.57;;;4.35;;
66012;SDS011;52783;50.502;8.190;2023-06-10T06:39:24;9.15;;;4.22;;
66012;SDS011;52783;50.502;8.190;2023-06-10T06:41:49;7.93;;;4.18;;
66012;SDS011;52783;50.502;8.190;2023-06-10T06:44:15;8.98;;;4.32;;
66012;SDS011;52783;50.502;8.190;2023-06-10T06:46:40;6.65;;;4.38;;
66012;SDS011;52783;50.502;8.190;2023-06-10T06:49:06;11.20;;;4.30;;
66012;SDS011;52783;50.502;8.190;2023-06-10T06:51:31;6.93;;;4.57;;
66012;SDS011;52783;50.502;8.190;2023-06-10T06:53:57;9.30;;;4.60;;
66012;SDS011;52783;50.502;8.190;2023-06-10T06:56:24;9.85;;;3.38;;
66012;SDS011;52783;50.502;8.190;2023-06-10T06:58:51;12.73;;;4.57;;
66012;SDS011;52783;50.502;8.190;2023-06-10T07:01:16;6.88;;;3.95;;
66012;SDS011;52783;50.502;8.190;2023-06-10T07:03:42;10.82;;;4.43;;
66012;SDS011;52783;50.502;8.190;2023-06-10T07:06:07;8.20;;;4.30;;
66012;SDS011;52783;50.502;8.190;2023-06-10T07:08:33;7.95;;;4.47;;
66012;SDS011;52783;50.502;8.190;2023-06-10T07:10:58;8.95;;;4.38;;
66012;SDS011;52783;50.502;8.190;2023-06-10T07:13:24;9.02;;;4.70;;
66012;SDS011;52783;50.502;8.190;2023-06-10T07:15:49;18.95;;;4.35;;
66012;SDS011;52783;50.502;8.190;2023-06-10T07:18:15;5.25;;;4.38;;
66012;SDS011;52783;50.502;8.190;2023-06-10T07:20:42;11.07;;;4.55;;
66012;SDS011;52783;50.502;8.190;2023-06-10T07:23:07;10.82;;;4.70;;
66012;SDS011;52783;50.502;8.190;2023-06-10T07:25:33;12.57;;;4.65;;
66012;SDS011;52783;50.502;8.190;2023-06-10T07:27:58;11.27;;;4.50;;
66012;SDS011;52783;50.502;8.190;2023-06-10T07:30:24;7.93;;;4.63;;
66012;SDS011;52783;50.502;8.190;2023-06-10T07:32:50;7.75;;;4.05;;
66012;SDS011;52783;50.502;8.190;2023-06-10T07:35:16;7.85;;;4.43;;
66012;SDS011;52783;50.502;8.190;2023-06-10T07:37:42;8.98;;;4.18;;
66012;SDS011;52783;50.502;8.190;2023-06-10T07:40:08;8.60;;;4.40;;
66012;SDS011;52783;50.502;8.190;2023-06-10T07:42:34;8.05;;;4.13;;
66012;SDS011;52783;50.502;8.190;2023-06-10T07:45:01;10.95;;;4.05;;
66012;SDS011;52783;50.502;8.190;2023-06-10T07:47:27;7.63;;;3.83;;
66012;SDS011;52783;50.502;8.190;2023-06-10T07:49:53;7.78;;;4.10;;
66012;SDS011;52783;50.502;8.190;2023-06-10T07:52:18;7.82;;;4.18;;
66012;SDS011;52783;50.502;8.190;2023-06-10T07:54:44;7.63;;;4.53;;
66012;SDS011;52783;50.502;8.190;2023-06-10T07:57:10;8.25;;;4.15;;
66012;SDS011;52783;50.502;8.190;2023-06-10T07:59:35;10.23;;;4.30;;
66012;SDS011;52783;50.502;8.190;2023-06-10T08:02:01;8.63;;;4.75;;
66012;SDS011;52783;50.502;8.190;2023-06-10T08:04:26;9.02;;;4.00;;
66012;SDS011;52783;50.502;8.190;2023-06-10T08:06:52;9.40;;;4.30;;
66012;SDS011;52783;50.502;8.190;2023-06-10T08:09:18;11.32;;;4.45;;
66012;SDS011;52783;50.502;8.190;2023-06-10T08:11:43;7.63;;;4.10;;
66012;SDS011;52783;50.502;8.190;2023-06-10T08:14:11;7.03;;;4.15;;
66012;SDS011;52783;50.502;8.190;2023-06-10T08:16:36;6.70;;;4.20;;
66012;SDS011;52783;50.502;8.190;2023-06-10T08:19:02;7.88;;;4.88;;
66012;SDS011;52783;50.502;8.190;2023-06-10T08:21:27;10.07;;;4.10;;
66012;SDS011;52783;50.502;8.190;2023-06-10T08:23:53;6.55;;;4.10;;
66012;SDS011;52783;50.502;8.190;2023-06-10T08:26:19;9.45;;;4.38;;
66012;SDS011;52783;50.502;8.190;2023-06-10T08:28:45;10.88;;;4.50;;
66012;SDS011;52783;50.502;8.190;2023-06-10T08:31:10;9.95;;;4.47;;
66012;SDS011;52783;50.502;8.190;2023-06-10T08:33:36;7.43;;;3.80;;
66012;SDS011;52783;50.502;8.190;2023-06-10T08:36:01;7.50;;;4.30;;
66012;SDS011;52783;50.502;8.190;2023-06-10T08:38:27;5.57;;;4.10;;
66012;SDS011;52783;50.502;8.190;2023-06-10T08:40:53;7.03;;;4.05;;
66012;SDS011;52783;50.502;8.190;2023-06-10T08:46:05;7.18;;;3.80;;
66012;SDS011;52783;50.502;8.190;2023-06-10T08:48:34;7.18;;;3.92;;
66012;SDS011;52783;50.502;8.190;2023-06-10T08:51:03;5.43;;;3.85;;
66012;SDS011;52783;50.502;8.190;2023-06-10T08:53:29;5.65;;;3.92;;
66012;SDS011;52783;50.502;8.190;2023-06-10T08:55:58;6.00;;;3.90;;
66012;SDS011;52783;50.502;8.190;2023-06-10T08:58:26;8.40;;;4.13;;
66012;SDS011;52783;50.502;8.190;2023-06-10T09:00:52;6.38;;;3.80;;
66012;SDS011;52783;50.502;8.190;2023-06-10T09:03:19;9.40;;;3.90;;
66012;SDS011;52783;50.502;8.190;2023-06-10T09:05:45;8.45;;;3.90;;
66012;SDS011;52783;50.502;8.190;2023-06-10T09:08:10;11.68;;;4.15;;
66012;SDS011;52783;50.502;8.190;2023-06-10T09:10:36;5.35;;;4.07;;
66012;SDS011;52783;50.502;8.190;2023-06-10T09:13:02;6.05;;;4.20;;
66012;SDS011;52783;50.502;8.190;2023-06-10T09:15:28;10.40;;;3.95;;
66012;SDS011;52783;50.502;8.190;2023-06-10T09:17:53;27.92;;;5.38;;
66012;SDS011;52783;50.502;8.190;2023-06-10T09:20:19;34.10;;;4.45;;
66012;SDS011;52783;50.502;8.190;2023-06-10T09:22:45;20.25;;;5.07;;
66012;SDS011;52783;50.502;8.190;2023-06-10T09:25:11;12.32;;;4.45;;
66012;SDS011;52783;50.502;8.190;2023-06-10T09:27:47;8.63;;;4.18;;
66012;SDS011;52783;50.502;8.190;2023-06-10T09:30:27;8.82;;;4.68;;
66012;SDS011;52783;50.502;8.190;2023-06-10T09:32:57;6.70;;;3.90;;
66012;SDS011;52783;50.502;8.190;2023-06-10T09:35:25;10.15;;;4.10;;
66012;SDS011;52783;50.502;8.190;2023-06-10T09:37:55;9.07;;;4.03;;
66012;SDS011;52783;50.502;8.190;2023-06-10T09:40:22;12.68;;;3.92;;
66012;SDS011;52783;50.502;8.190;2023-06-10T09:42:52;9.68;;;3.90;;
66012;SDS011;52783;50.502;8.190;2023-06-10T09:45:31;19.77;;;4.28;;
66012;SDS011;52783;50.502;8.190;2023-06-10T09:47:57;17.95;;;4.20;;
66012;SDS011;52783;50.502;8.190;2023-06-10T09:50:23;7.68;;;3.58;;
66012;SDS011;52783;50.502;8.190;2023-06-10T09:52:50;8.52;;;3.90;;
66012;SDS011;52783;50.502;8.190;2023-06-10T09:55:15;5.32;;;3.65;;
66012;SDS011;52783;50.502;8.190;2023-06-10T09:57:42;8.93;;;4.15;;
66012;SDS011;52783;50.502;8.190;2023-06-10T10:00:09;25.55;;;4.05;;
66012;SDS011;52783;50.502;8.190;2023-06-10T10:02:43;6.55;;;3.72;;
66012;SDS011;52783;50.502;8.190;2023-06-10T10:05:17;10.77;;;4.00;;
66012;SDS011;52783;50.502;8.190;2023-06-10T10:07:43;12.13;;;4.03;;
66012;SDS011;52783;50.502;8.190;2023-06-10T10:10:10;10.65;;;4.40;;
66012;SDS011;52783;50.502;8.190;2023-06-10T10:12:38;6.90;;;3.72;;
66012;SDS011;52783;50.502;8.190;2023-06-10T10:15:08;10.35;;;4.35;;
66012;SDS011;52783;50.502;8.190;2023-06-10T10:17:40;6.82;;;3.95;;
66012;SDS011;52783;50.502;8.190;2023-06-10T10:20:09;10.10;;;3.80;;
66012;SDS011;52783;50.502;8.190;2023-06-10T10:22:38;9.65;;;3.70;;
66012;SDS011;52783;50.502;8.190;2023-06-10T10:25:06;11.30;;;4.28;;
66012;SDS011;52783;50.502;8.190;2023-06-10T10:30:14;10.73;;;4.10;;
66012;SDS011;52783;50.502;8.190;2023-06-10T10:33:28;6.40;;;3.83;;
66012;SDS011;52783;50.502;8.190;2023-06-10T10:35:47;7.28;;;3.88;;
66012;SDS011;52783;50.502;8.190;2023-06-10T10:38:13;10.93;;;3.72;;
66012;SDS011;52783;50.502;8.190;2023-06-10T10:40:39;7.88;;;3.92;;
66012;SDS011;52783;50.502;8.190;2023-06-10T10:43:05;6.85;;;3.38;;
66012;SDS011;52783;50.502;8.190;2023-06-10T10:45:33;9.02;;;3.88;;
66012;SDS011;52783;50.502;8.190;2023-06-10T10:47:59;9.18;;;3.38;;
66012;SDS011;52783;50.502;8.190;2023-06-10T10:50:30;6.43;;;3.65;;
66012;SDS011;52783;50.502;8.190;2023-06-10T10:52:58;12.13;;;3.45;;
66012;SDS011;52783;50.502;8.190;2023-06-10T10:55:28;4.88;;;3.53;;
66012;SDS011;52783;50.502;8.190;2023-06-10T10:57:58;6.18;;;3.55;;
66012;SDS011;52783;50.502;8.190;2023-06-10T11:00:34;7.13;;;4.15;;
66012;SDS011;52783;50.502;8.190;2023-06-10T11:05:35;6.20;;;3.92;;
66012;SDS011;52783;50.502;8.190;2023-06-10T11:08:01;10.90;;;4.32;;
66012;SDS011;52783;50.502;8.190;2023-06-10T11:10:30;6.72;;;3.88;;
66012;SDS011;52783;50.502;8.190;2023-06-10T11:13:02;10.88;;;3.97;;
66012;SDS011;52783;50.502;8.190;2023-06-10T11:15:38;9.48;;;3.75;;
66012;SDS011;52783;50.502;8.190;2023-06-10T11:26:43;8.77;;;3.65;;
66012;SDS011;52783;50.502;8.190;2023-06-10T11:28:39;5.55;;;3.90;;
66012;SDS011;52783;50.502;8.190;2023-06-10T11:31:05;6.10;;;4.22;;
66012;SDS011;52783;50.502;8.190;2023-06-10T11:33:31;10.63;;;3.90;;
66012;SDS011;52783;50.502;8.190;2023-06-10T11:35:56;6.57;;;3.97;;
66012;SDS011;52783;50.502;8.190;2023-06-10T11:38:23;5.30;;;3.38;;
66012;SDS011;52783;50.502;8.190;2023-06-10T11:40:49;6.18;;;3.70;;
66012;SDS011;52783;50.502;8.190;2023-06-10T11:43:18;5.43;;;4.10;;
66012;SDS011;52783;50.502;8.190;2023-06-10T11:45:44;10.32;;;3.53;;
66012;SDS011;52783;50.502;8.190;2023-06-10T11:48:11;13.80;;;4.00;;
66012;SDS011;52783;50.502;8.190;2023-06-10T11:50:37;7.80;;;3.47;;
66012;SDS011;52783;50.502;8.190;2023-06-10T11:53:03;12.48;;;3.95;;
66012;SDS011;52783;50.502;8.190;2023-06-10T11:55:48;8.13;;;3.88;;
66012;SDS011;52783;50.502;8.190;2023-06-10T11:58:20;12.25;;;3.60;;
66012;SDS011;52783;50.502;8.190;2023-06-10T12:00:47;4.72;;;3.33;;
66012;SDS011;52783;50.502;8.190;2023-06-10T12:03:14;9.52;;;3.88;;
66012;SDS011;52783;50.502;8.190;2023-06-10T12:05:40;14.10;;;3.42;;
66012;SDS011;52783;50.502;8.190;2023-06-10T12:08:18;10.13;;;3.95;;
66012;SDS011;52783;50.502;8.190;2023-06-10T12:10:44;8.65;;;4.18;;
66012;SDS011;52783;50.502;8.190;2023-06-10T12:13:09;6.30;;;3.67;;
66012;SDS011;52783;50.502;8.190;2023-06-10T12:15:35;11.60;;;4.00;;
66012;SDS011;52783;50.502;8.190;2023-06-10T12:18:01;7.72;;;3.85;;
66012;SDS011;52783;50.502;8.190;2023-06-10T12:20:28;9.70;;;3.70;;
66012;SDS011;52783;50.502;8.190;2023-06-10T12:22:55;5.90;;;3.78;;
66012;SDS011;52783;50.502;8.190;2023-06-10T12:25:24;6.22;;;3.75;;
66012;SDS011;52783;50.502;8.190;2023-06-10T12:27:52;8.10;;;3.58;;
66012;SDS011;52783;50.502;8.190;2023-06-10T12:30:20;6.97;;;3.65;;
66012;SDS011;52783;50.502;8.190;2023-06-10T12:32:46;8.77;;;3.80;;
66012;SDS011;52783;50.502;8.190;2023-06-10T12:35:13;7.10;;;3.55;;
66012;SDS011;52783;50.502;8.190;2023-06-10T12:37:42;31.65;;;4.63;;
66012;SDS011;52783;50.502;8.190;2023-06-10T12:40:25;6.75;;;3.60;;
66012;SDS011;52783;50.502;8.190;2023-06-10T12:42:52;6.65;;;3.80;;
66012;SDS011;52783;50.502;8.190;2023-06-10T12:45:25;7.40;;;4.13;;
66012;SDS011;52783;50.502;8.190;2023-06-10T12:48:03;11.93;;;3.53;;
66012;SDS011;52783;50.502;8.190;2023-06-10T12:50:52;13.15;;;3.58;;
66012;SDS011;52783;50.502;8.190;2023-06-10T12:53:21;7.60;;;3.63;;
66012;SDS011;52783;50.502;8.190;2023-06-10T12:55:48;7.45;;;3.90;;
66012;SDS011;52783;50.502;8.190;2023-06-10T12:58:14;6.10;;;3.60;;
66012;SDS011;52783;50.502;8.190;2023-06-10T13:00:40;12.98;;;4.18;;
66012;SDS011;52783;50.502;8.190;2023-06-10T13:03:07;5.55;;;3.50;;
66012;SDS011;52783;50.502;8.190;2023-06-10T13:05:34;7.05;;;3.50;;
66012;SDS011;52783;50.502;8.190;2023-06-10T13:08:03;5.15;;;3.38;;
66012;SDS011;52783;50.502;8.190;2023-06-10T13:10:30;6.43;;;3.25;;
66012;SDS011;52783;50.502;8.190;2023-06-10T13:12:55;11.50;;;3.83;;
66012;SDS011;52783;50.502;8.190;2023-06-10T13:15:21;18.15;;;3.42;;
66012;SDS011;52783;50.502;8.190;2023-06-10T13:17:47;9.13;;;3.55;;
66012;SDS011;52783;50.502;8.190;2023-06-10T13:20:16;6.05;;;3.15;;
66012;SDS011;52783;50.502;8.190;2023-06-10T13:22:42;6.57;;;3.13;;
66012;SDS011;52783;50.502;8.190;2023-06-10T13:25:07;8.88;;;3.70;;
66012;SDS011;52783;50.502;8.190;2023-06-10T13:27:34;3.85;;;3.20;;
66012;SDS011;52783;50.502;8.190;2023-06-10T13:30:00;9.27;;;3.38;;
66012;SDS011;52783;50.502;8.190;2023-06-10T13:32:26;15.70;;;3.97;;
66012;SDS011;52783;50.502;8.190;2023-06-10T13:34:51;8.32;;;3.30;;
66012;SDS011;52783;50.502;8.190;2023-06-10T13:37:18;5.28;;;3.40;;
66012;SDS011;52783;50.502;8.190;2023-06-10T13:39:44;7.32;;;3.28;;
66012;SDS011;52783;50.502;8.190;2023-06-10T13:42:13;33.70;;;4.35;;
66012;SDS011;52783;50.502;8.190;2023-06-10T13:44:39;9.48;;;3.70;;
66012;SDS011;52783;50.502;8.190;2023-06-10T13:47:05;5.22;;;3.20;;
66012;SDS011;52783;50.502;8.190;2023-06-10T13:49:31;5.70;;;3.60;;
66012;SDS011;52783;50.502;8.190;2023-06-10T13:51:57;7.50;;;3.33;;
66012;SDS011;52783;50.502;8.190;2023-06-10T13:54:22;4.82;;;3.10;;
66012;SDS011;52783;50.502;8.190;2023-06-10T13:56:48;10.30;;;3.85;;
66012;SDS011;52783;50.502;8.190;2023-06-10T13:59:14;5.15;;;3.33;;
66012;SDS011;52783;50.502;8.190;2023-06-10T14:01:39;8.05;;;3.20;;
66012;SDS011;52783;50.502;8.190;2023-06-10T14:04:07;8.63;;;3.15;;
66012;SDS011;52783;50.502;8.190;2023-06-10T14:06:33;4.90;;;3.40;;
66012;SDS011;52783;50.502;8.190;2023-06-10T14:09:02;7.38;;;3.53;;
66012;SDS011;52783;50.502;8.190;2023-06-10T14:11:27;7.68;;;3.50;;
66012;SDS011;52783;50.502;8.190;2023-06-10T14:13:53;13.95;;;3.50;;
66012;SDS011;52783;50.502;8.190;2023-06-10T14:16:21;33.92;;;4.13;;
66012;SDS011;52783;50.502;8.190;2023-06-10T14:18:47;8.00;;;3.85;;
66012;SDS011;52783;50.502;8.190;2023-06-10T14:21:12;7.05;;;3.50;;
66012;SDS011;52783;50.502;8.190;2023-06-10T14:23:38;13.65;;;3.05;;
66012;SDS011;52783;50.502;8.190;2023-06-10T14:26:04;5.88;;;3.38;;
66012;SDS011;52783;50.502;8.190;2023-06-10T14:28:31;3.30;;;2.90;;
66012;SDS011;52783;50.502;8.190;2023-06-10T14:30:56;8.52;;;3.25;;
66012;SDS011;52783;50.502;8.190;2023-06-10T14:33:22;4.75;;;3.00;;
66012;SDS011;52783;50.502;8.190;2023-06-10T14:35:48;7.10;;;3.58;;
66012;SDS011;52783;50.502;8.190;2023-06-10T14:38:13;10.02;;;3.30;;
66012;SDS011;52783;50.502;8.190;2023-06-10T14:40:39;6.78;;;3.63;;
66012;SDS011;52783;50.502;8.190;2023-06-10T14:43:04;5.60;;;3.47;;
66012;SDS011;52783;50.502;8.190;2023-06-10T14:45:35;9.40;;;3.58;;
66012;SDS011;52783;50.502;8.190;2023-06-10T14:48:06;8.95;;;3.45;;
66012;SDS011;52783;50.502;8.190;2023-06-10T14:50:32;7.80;;;3.38;;
66012;SDS011;52783;50.502;8.190;2023-06-10T14:53:01;6.22;;;3.28;;
66012;SDS011;52783;50.502;8.190;2023-06-10T14:55:27;3.60;;;3.20;;
66012;SDS011;52783;50.502;8.190;2023-06-10T14:57:52;4.55;;;3.05;;
66012;SDS011;52783;50.502;8.190;2023-06-10T15:00:18;5.97;;;3.13;;